sensor_id;sensor_type;location;lat;lon;timestamp;P1;durP1;ratioP1;P2;durP2;ratioP2
12896;SDS011;6516;35.028;32.372;2023-03-24T00:02:17;11.73;;;4.53;;
12896;SDS011;6516;35.028;32.372;2023-03-24T00:04:46;10.50;;;4.40;;
12896;SDS011;6516;35.028;32.372;2023-03-24T00:07:16;10.95;;;4.70;;
12896;SDS011;6516;35.028;32.372;2023-03-24T00:09:48;15.83;;;5.43;;
12896;SDS011;6516;35.028;32.372;2023-03-24T00:12:15;12.57;;;5.03;;
12896;SDS011;6516;35.028;32.372;2023-03-24T00:14:44;10.45;;;4.72;;
12896;SDS011;6516;35.028;32.372;2023-03-24T00:17:12;13.20;;;4.82;;
12896;SDS011;6516;35.028;32.372;2023-03-24T00:19:43;11.23;;;4.93;;
12896;SDS011;6516;35.028;32.372;2023-03-24T00:22:11;10.40;;;4.80;;
12896;SDS011;6516;35.028;32.372;2023-03-24T00:24:42;12.63;;;4.75;;
12896;SDS011;6516;35.028;32.372;2023-03-24T00:27:11;11.38;;;4.70;;
12896;SDS011;6516;35.028;32.372;2023-03-24T00:29:39;12.57;;;4.55;;
12896;SDS011;6516;35.028;32.372;2023-03-24T00:32:08;14.07;;;4.80;;
12896;SDS011;6516;35.028;32.372;2023-03-24T00:34:36;10.30;;;5.07;;
12896;SDS011;6516;35.028;32.372;2023-03-24T00:37:05;10.05;;;4.85;;
12896;SDS011;6516;35.028;32.372;2023-03-24T00:39:33;14.30;;;4.88;;
12896;SDS011;6516;35.028;32.372;2023-03-24T00:42:01;9.82;;;4.47;;
12896;SDS011;6516;35.028;32.372;2023-03-24T00:44:29;14.77;;;4.50;;
12896;SDS011;6516;35.028;32.372;2023-03-24T00:46:58;11.57;;;4.43;;
12896;SDS011;6516;35.028;32.372;2023-03-24T00:49:27;12.15;;;5.25;;
12896;SDS011;6516;35.028;32.372;2023-03-24T00:52:10;10.23;;;4.85;;
12896;SDS011;6516;35.028;32.372;2023-03-24T00:54:42;12.55;;;4.85;;
12896;SDS011;6516;35.028;32.372;2023-03-24T00:57:11;15.23;;;4.97;;
12896;SDS011;6516;35.028;32.372;2023-03-24T00:59:39;9.83;;;4.50;;
12896;SDS011;6516;35.028;32.372;2023-03-24T01:02:12;13.02;;;4.78;;
12896;SDS011;6516;35.028;32.372;2023-03-24T01:04:43;12.27;;;4.72;;
12896;SDS011;6516;35.028;32.372;2023-03-24T01:07:13;16.20;;;4.90;;
12896;SDS011;6516;35.028;32.372;2023-03-24T01:09:43;10.07;;;4.57;;
12896;SDS011;6516;35.028;32.372;2023-03-24T01:12:16;9.57;;;4.60;;
12896;SDS011;6516;35.028;32.372;2023-03-24T01:14:46;10.45;;;4.90;;
12896;SDS011;6516;35.028;32.372;2023-03-24T01:17:13;11.02;;;5.10;;
12896;SDS011;6516;35.028;32.372;2023-03-24T01:19:43;13.45;;;5.57;;
12896;SDS011;6516;35.028;32.372;2023-03-24T01:22:13;10.88;;;5.15;;
12896;SDS011;6516;35.028;32.372;2023-03-24T01:24:41;11.83;;;5.03;;
12896;SDS011;6516;35.028;32.372;2023-03-24T01:27:09;12.18;;;5.15;;
12896;SDS011;6516;35.028;32.372;2023-03-24T01:29:37;10.82;;;5.13;;
12896;SDS011;6516;35.028;32.372;2023-03-24T01:32:05;13.77;;;5.43;;
12896;SDS011;6516;35.028;32.372;2023-03-24T01:34:34;12.52;;;5.95;;
12896;SDS011;6516;35.028;32.372;2023-03-24T01:37:02;12.63;;;4.57;;
12896;SDS011;6516;35.028;32.372;2023-03-24T01:39:32;9.95;;;4.80;;
12896;SDS011;6516;35.028;32.372;2023-03-24T01:42:00;11.02;;;5.15;;
12896;SDS011;6516;35.028;32.372;2023-03-24T01:44:30;11.25;;;5.65;;
12896;SDS011;6516;35.028;32.372;2023-03-24T01:47:02;11.98;;;5.70;;
12896;SDS011;6516;35.028;32.372;2023-03-24T01:49:33;13.50;;;5.30;;
12896;SDS011;6516;35.028;32.372;2023-03-24T01:52:06;11.02;;;5.60;;
12896;SDS011;6516;35.028;32.372;2023-03-24T01:54:43;15.25;;;5.60;;
12896;SDS011;6516;35.028;32.372;2023-03-24T01:57:16;13.95;;;6.38;;
12896;SDS011;6516;35.028;32.372;2023-03-24T01:59:50;15.80;;;6.15;;
12896;SDS011;6516;35.028;32.372;2023-03-24T02:02:22;14.87;;;6.53;;
12896;SDS011;6516;35.028;32.372;2023-03-24T02:04:51;14.35;;;5.90;;
12896;SDS011;6516;35.028;32.372;2023-03-24T02:07:26;15.30;;;5.43;;
12896;SDS011;6516;35.028;32.372;2023-03-24T02:10:00;10.40;;;6.03;;
12896;SDS011;6516;35.028;32.372;2023-03-24T02:12:33;12.43;;;5.50;;
12896;SDS011;6516;35.028;32.372;2023-03-24T02:15:01;15.20;;;5.87;;
12896;SDS011;6516;35.028;32.372;2023-03-24T02:17:41;12.90;;;5.28;;
12896;SDS011;6516;35.028;32.372;2023-03-24T02:20:29;15.95;;;5.90;;
12896;SDS011;6516;35.028;32.372;2023-03-24T02:23:35;12.18;;;5.57;;
12896;SDS011;6516;35.028;32.372;2023-03-24T02:26:43;13.18;;;5.07;;
12896;SDS011;6516;35.028;32.372;2023-03-24T02:42:09;15.07;;;5.57;;
12896;SDS011;6516;35.028;32.372;2023-03-24T02:44:50;14.93;;;5.70;;
12896;SDS011;6516;35.028;32.372;2023-03-24T02:47:34;15.73;;;6.25;;
12896;SDS011;6516;35.028;32.372;2023-03-24T02:50:15;17.73;;;6.25;;
12896;SDS011;6516;35.028;32.372;2023-03-24T02:52:54;12.02;;;5.43;;
12896;SDS011;6516;35.028;32.372;2023-03-24T02:55:35;15.07;;;5.47;;
12896;SDS011;6516;35.028;32.372;2023-03-24T02:58:12;13.63;;;5.00;;
12896;SDS011;6516;35.028;32.372;2023-03-24T03:00:47;10.57;;;5.85;;
12896;SDS011;6516;35.028;32.372;2023-03-24T03:03:24;12.25;;;5.28;;
12896;SDS011;6516;35.028;32.372;2023-03-24T03:06:00;13.32;;;6.13;;
12896;SDS011;6516;35.028;32.372;2023-03-24T03:08:33;11.38;;;5.20;;
12896;SDS011;6516;35.028;32.372;2023-03-24T03:11:05;12.03;;;5.60;;
12896;SDS011;6516;35.028;32.372;2023-03-24T03:13:41;13.70;;;5.80;;
12896;SDS011;6516;35.028;32.372;2023-03-24T03:16:17;12.65;;;5.78;;
12896;SDS011;6516;35.028;32.372;2023-03-24T03:18:50;12.18;;;5.78;;
12896;SDS011;6516;35.028;32.372;2023-03-24T03:21:23;14.52;;;5.60;;
12896;SDS011;6516;35.028;32.372;2023-03-24T03:23:55;10.87;;;5.50;;
12896;SDS011;6516;35.028;32.372;2023-03-24T03:26:30;11.75;;;4.90;;
12896;SDS011;6516;35.028;32.372;2023-03-24T03:29:00;10.30;;;5.28;;
12896;SDS011;6516;35.028;32.372;2023-03-24T03:31:34;14.77;;;6.05;;
12896;SDS011;6516;35.028;32.372;2023-03-24T03:34:10;15.35;;;6.35;;
12896;SDS011;6516;35.028;32.372;2023-03-24T03:36:47;17.13;;;6.67;;
12896;SDS011;6516;35.028;32.372;2023-03-24T03:39:21;10.02;;;5.38;;
12896;SDS011;6516;35.028;32.372;2023-03-24T03:41:56;16.58;;;6.10;;
12896;SDS011;6516;35.028;32.372;2023-03-24T03:44:24;15.18;;;5.72;;
12896;SDS011;6516;35.028;32.372;2023-03-24T03:46:52;12.27;;;5.90;;
12896;SDS011;6516;35.028;32.372;2023-03-24T03:49:21;12.47;;;5.77;;
12896;SDS011;6516;35.028;32.372;2023-03-24T03:51:50;12.35;;;5.70;;
12896;SDS011;6516;35.028;32.372;2023-03-24T03:54:20;14.43;;;6.15;;
12896;SDS011;6516;35.028;32.372;2023-03-24T03:56:50;12.43;;;6.07;;
12896;SDS011;6516;35.028;32.372;2023-03-24T03:59:24;16.63;;;6.30;;
12896;SDS011;6516;35.028;32.372;2023-03-24T04:01:54;14.70;;;6.17;;
12896;SDS011;6516;35.028;32.372;2023-03-24T04:07:42;14.43;;;6.38;;
12896;SDS011;6516;35.028;32.372;2023-03-24T04:10:29;11.15;;;5.55;;
12896;SDS011;6516;35.028;32.372;2023-03-24T04:13:10;14.07;;;6.32;;
12896;SDS011;6516;35.028;32.372;2023-03-24T04:15:53;13.57;;;6.47;;
12896;SDS011;6516;35.028;32.372;2023-03-24T04:18:31;13.70;;;6.30;;
12896;SDS011;6516;35.028;32.372;2023-03-24T04:21:25;17.75;;;6.32;;
12896;SDS011;6516;35.028;32.372;2023-03-24T04:24:24;12.95;;;6.13;;
12896;SDS011;6516;35.028;32.372;2023-03-24T04:27:06;14.35;;;6.40;;
12896;SDS011;6516;35.028;32.372;2023-03-24T04:29:41;13.83;;;6.10;;
12896;SDS011;6516;35.028;32.372;2023-03-24T04:32:23;14.07;;;6.35;;
12896;SDS011;6516;35.028;32.372;2023-03-24T04:34:57;14.38;;;6.60;;
12896;SDS011;6516;35.028;32.372;2023-03-24T04:37:29;14.40;;;5.55;;
12896;SDS011;6516;35.028;32.372;2023-03-24T04:40:03;15.85;;;6.07;;
12896;SDS011;6516;35.028;32.372;2023-03-24T04:42:35;11.83;;;6.10;;
12896;SDS011;6516;35.028;32.372;2023-03-24T04:45:09;11.02;;;5.65;;
12896;SDS011;6516;35.028;32.372;2023-03-24T04:47:41;12.70;;;5.47;;
12896;SDS011;6516;35.028;32.372;2023-03-24T04:50:12;11.65;;;5.93;;
12896;SDS011;6516;35.028;32.372;2023-03-24T04:52:41;13.77;;;6.45;;
12896;SDS011;6516;35.028;32.372;2023-03-24T04:55:17;11.40;;;5.50;;
12896;SDS011;6516;35.028;32.372;2023-03-24T04:58:12;13.90;;;5.63;;
12896;SDS011;6516;35.028;32.372;2023-03-24T05:00:40;12.85;;;5.95;;
12896;SDS011;6516;35.028;32.372;2023-03-24T05:03:11;11.55;;;5.57;;
12896;SDS011;6516;35.028;32.372;2023-03-24T05:05:40;16.15;;;5.85;;
12896;SDS011;6516;35.028;32.372;2023-03-24T05:08:09;10.57;;;4.90;;
12896;SDS011;6516;35.028;32.372;2023-03-24T05:10:37;12.75;;;5.00;;
12896;SDS011;6516;35.028;32.372;2023-03-24T05:13:05;11.23;;;4.93;;
12896;SDS011;6516;35.028;32.372;2023-03-24T05:15:34;14.32;;;5.25;;
12896;SDS011;6516;35.028;32.372;2023-03-24T05:18:02;11.50;;;5.25;;
12896;SDS011;6516;35.028;32.372;2023-03-24T05:20:32;10.90;;;4.80;;
12896;SDS011;6516;35.028;32.372;2023-03-24T05:23:00;11.73;;;4.57;;
12896;SDS011;6516;35.028;32.372;2023-03-24T05:25:28;11.50;;;4.65;;
12896;SDS011;6516;35.028;32.372;2023-03-24T05:27:55;10.70;;;4.82;;
12896;SDS011;6516;35.028;32.372;2023-03-24T05:30:23;12.73;;;5.25;;
12896;SDS011;6516;35.028;32.372;2023-03-24T05:32:51;7.40;;;4.07;;
12896;SDS011;6516;35.028;32.372;2023-03-24T05:35:19;9.27;;;4.60;;
12896;SDS011;6516;35.028;32.372;2023-03-24T05:37:48;9.45;;;4.80;;
12896;SDS011;6516;35.028;32.372;2023-03-24T05:40:16;11.07;;;4.30;;
12896;SDS011;6516;35.028;32.372;2023-03-24T05:42:44;8.13;;;4.40;;
12896;SDS011;6516;35.028;32.372;2023-03-24T05:45:15;10.33;;;4.03;;
12896;SDS011;6516;35.028;32.372;2023-03-24T05:47:43;9.73;;;4.03;;
12896;SDS011;6516;35.028;32.372;2023-03-24T05:50:12;10.55;;;4.35;;
12896;SDS011;6516;35.028;32.372;2023-03-24T05:52:40;7.50;;;3.97;;
12896;SDS011;6516;35.028;32.372;2023-03-24T05:55:09;9.95;;;4.20;;
12896;SDS011;6516;35.028;32.372;2023-03-24T05:57:37;9.73;;;4.33;;
12896;SDS011;6516;35.028;32.372;2023-03-24T06:00:05;8.95;;;3.92;;
12896;SDS011;6516;35.028;32.372;2023-03-24T06:02:41;10.32;;;4.40;;
12896;SDS011;6516;35.028;32.372;2023-03-24T06:05:08;10.65;;;4.30;;
12896;SDS011;6516;35.028;32.372;2023-03-24T06:07:37;11.45;;;4.35;;
12896;SDS011;6516;35.028;32.372;2023-03-24T06:10:07;11.13;;;4.67;;
12896;SDS011;6516;35.028;32.372;2023-03-24T06:12:38;8.88;;;4.13;;
12896;SDS011;6516;35.028;32.372;2023-03-24T06:15:07;10.52;;;4.05;;
12896;SDS011;6516;35.028;32.372;2023-03-24T06:17:36;7.43;;;3.95;;
12896;SDS011;6516;35.028;32.372;2023-03-24T06:20:07;9.88;;;4.22;;
12896;SDS011;6516;35.028;32.372;2023-03-24T06:22:40;9.40;;;4.00;;
12896;SDS011;6516;35.028;32.372;2023-03-24T06:25:11;12.38;;;5.03;;
12896;SDS011;6516;35.028;32.372;2023-03-24T06:27:41;9.98;;;4.03;;
12896;SDS011;6516;35.028;32.372;2023-03-24T06:30:11;9.18;;;3.92;;
12896;SDS011;6516;35.028;32.372;2023-03-24T06:32:41;7.93;;;4.22;;
12896;SDS011;6516;35.028;32.372;2023-03-24T06:35:11;9.80;;;3.90;;
12896;SDS011;6516;35.028;32.372;2023-03-24T06:37:40;9.70;;;3.88;;
12896;SDS011;6516;35.028;32.372;2023-03-24T06:40:08;7.80;;;3.85;;
12896;SDS011;6516;35.028;32.372;2023-03-24T06:42:40;8.77;;;3.90;;
12896;SDS011;6516;35.028;32.372;2023-03-24T06:45:08;10.85;;;4.38;;
12896;SDS011;6516;35.028;32.372;2023-03-24T06:47:36;8.17;;;3.80;;
12896;SDS011;6516;35.028;32.372;2023-03-24T06:50:05;11.35;;;3.88;;
12896;SDS011;6516;35.028;32.372;2023-03-24T06:52:33;9.73;;;4.07;;
12896;SDS011;6516;35.028;32.372;2023-03-24T06:55:02;9.95;;;3.85;;
12896;SDS011;6516;35.028;32.372;2023-03-24T06:57:32;10.32;;;3.92;;
12896;SDS011;6516;35.028;32.372;2023-03-24T07:00:00;9.83;;;3.90;;
12896;SDS011;6516;35.028;32.372;2023-03-24T07:02:30;10.23;;;3.72;;
12896;SDS011;6516;35.028;32.372;2023-03-24T07:04:59;10.02;;;3.75;;
12896;SDS011;6516;35.028;32.372;2023-03-24T07:07:30;11.02;;;3.88;;
12896;SDS011;6516;35.028;32.372;2023-03-24T07:09:58;9.30;;;3.95;;
12896;SDS011;6516;35.028;32.372;2023-03-24T07:12:26;8.00;;;3.77;;
12896;SDS011;6516;35.028;32.372;2023-03-24T07:14:56;8.88;;;3.88;;
12896;SDS011;6516;35.028;32.372;2023-03-24T07:17:24;10.60;;;3.83;;
12896;SDS011;6516;35.028;32.372;2023-03-24T07:19:52;11.98;;;4.28;;
12896;SDS011;6516;35.028;32.372;2023-03-24T07:22:20;11.48;;;3.80;;
12896;SDS011;6516;35.028;32.372;2023-03-24T07:24:47;10.07;;;3.40;;
12896;SDS011;6516;35.028;32.372;2023-03-24T07:27:15;11.55;;;3.47;;
12896;SDS011;6516;35.028;32.372;2023-03-24T07:29:43;8.32;;;3.75;;
12896;SDS011;6516;35.028;32.372;2023-03-24T07:32:12;10.63;;;3.35;;
12896;SDS011;6516;35.028;32.372;2023-03-24T07:34:40;9.63;;;3.90;;
12896;SDS011;6516;35.028;32.372;2023-03-24T07:37:10;9.57;;;3.43;;
12896;SDS011;6516;35.028;32.372;2023-03-24T07:39:37;9.85;;;3.30;;
12896;SDS011;6516;35.028;32.372;2023-03-24T07:42:05;14.27;;;3.50;;
12896;SDS011;6516;35.028;32.372;2023-03-24T07:44:33;9.18;;;3.25;;
12896;SDS011;6516;35.028;32.372;2023-03-24T07:47:01;11.77;;;3.90;;
12896;SDS011;6516;35.028;32.372;2023-03-24T07:49:30;10.03;;;3.37;;
12896;SDS011;6516;35.028;32.372;2023-03-24T07:51:58;9.43;;;3.60;;
12896;SDS011;6516;35.028;32.372;2023-03-24T07:54:30;10.38;;;3.75;;
12896;SDS011;6516;35.028;32.372;2023-03-24T07:56:58;9.68;;;3.58;;
12896;SDS011;6516;35.028;32.372;2023-03-24T07:59:26;9.38;;;3.53;;
12896;SDS011;6516;35.028;32.372;2023-03-24T08:01:54;12.33;;;3.87;;
12896;SDS011;6516;35.028;32.372;2023-03-24T08:04:22;8.70;;;3.35;;
12896;SDS011;6516;35.028;32.372;2023-03-24T08:06:52;11.18;;;3.88;;
12896;SDS011;6516;35.028;32.372;2023-03-24T08:09:22;9.43;;;3.55;;
12896;SDS011;6516;35.028;32.372;2023-03-24T08:11:50;10.50;;;3.95;;
12896;SDS011;6516;35.028;32.372;2023-03-24T08:14:18;10.00;;;3.60;;
12896;SDS011;6516;35.028;32.372;2023-03-24T08:16:46;8.65;;;3.63;;
12896;SDS011;6516;35.028;32.372;2023-03-24T08:19:14;10.23;;;3.40;;
12896;SDS011;6516;35.028;32.372;2023-03-24T08:21:41;8.07;;;3.47;;
12896;SDS011;6516;35.028;32.372;2023-03-24T08:24:17;9.30;;;3.35;;
12896;SDS011;6516;35.028;32.372;2023-03-24T08:26:45;8.37;;;3.10;;
12896;SDS011;6516;35.028;32.372;2023-03-24T08:29:13;9.43;;;3.00;;
12896;SDS011;6516;35.028;32.372;2023-03-24T08:31:40;10.15;;;3.15;;
12896;SDS011;6516;35.028;32.372;2023-03-24T08:34:08;13.38;;;3.92;;
12896;SDS011;6516;35.028;32.372;2023-03-24T08:36:36;10.27;;;3.80;;
12896;SDS011;6516;35.028;32.372;2023-03-24T08:39:05;9.83;;;3.63;;
12896;SDS011;6516;35.028;32.372;2023-03-24T08:41:36;9.90;;;3.30;;
12896;SDS011;6516;35.028;32.372;2023-03-24T08:44:04;14.05;;;3.70;;
12896;SDS011;6516;35.028;32.372;2023-03-24T08:46:32;11.93;;;3.65;;
12896;SDS011;6516;35.028;32.372;2023-03-24T08:49:00;10.60;;;3.20;;
12896;SDS011;6516;35.028;32.372;2023-03-24T08:51:28;9.23;;;3.60;;
12896;SDS011;6516;35.028;32.372;2023-03-24T08:53:57;10.98;;;3.10;;
12896;SDS011;6516;35.028;32.372;2023-03-24T08:56:25;9.98;;;3.30;;
12896;SDS011;6516;35.028;32.372;2023-03-24T08:58:55;9.63;;;3.20;;
12896;SDS011;6516;35.028;32.372;2023-03-24T09:01:23;10.18;;;3.90;;
12896;SDS011;6516;35.028;32.372;2023-03-24T09:03:51;10.30;;;3.60;;
12896;SDS011;6516;35.028;32.372;2023-03-24T09:06:19;11.07;;;3.40;;
12896;SDS011;6516;35.028;32.372;2023-03-24T09:08:47;10.70;;;3.05;;
12896;SDS011;6516;35.028;32.372;2023-03-24T09:11:15;10.77;;;3.72;;
12896;SDS011;6516;35.028;32.372;2023-03-24T09:13:45;8.68;;;3.13;;
12896;SDS011;6516;35.028;32.372;2023-03-24T09:16:14;12.43;;;3.47;;
12896;SDS011;6516;35.028;32.372;2023-03-24T09:18:43;9.90;;;3.25;;
12896;SDS011;6516;35.028;32.372;2023-03-24T09:21:12;11.70;;;3.50;;
12896;SDS011;6516;35.028;32.372;2023-03-24T09:23:40;10.35;;;3.35;;
12896;SDS011;6516;35.028;32.372;2023-03-24T09:26:08;9.77;;;3.58;;
12896;SDS011;6516;35.028;32.372;2023-03-24T09:28:36;12.83;;;3.70;;
12896;SDS011;6516;35.028;32.372;2023-03-24T09:31:04;10.27;;;3.58;;
12896;SDS011;6516;35.028;32.372;2023-03-24T09:33:34;13.10;;;3.58;;
12896;SDS011;6516;35.028;32.372;2023-03-24T09:36:02;13.32;;;3.75;;
12896;SDS011;6516;35.028;32.372;2023-03-24T09:38:31;10.85;;;3.63;;
12896;SDS011;6516;35.028;32.372;2023-03-24T09:40:59;10.53;;;3.40;;
12896;SDS011;6516;35.028;32.372;2023-03-24T09:43:30;9.55;;;4.03;;
12896;SDS011;6516;35.028;32.372;2023-03-24T09:46:05;13.60;;;5.32;;
12896;SDS011;6516;35.028;32.372;2023-03-24T09:48:43;10.73;;;4.55;;
12896;SDS011;6516;35.028;32.372;2023-03-24T09:51:18;8.40;;;4.70;;
12896;SDS011;6516;35.028;32.372;2023-03-24T09:53:51;15.17;;;5.63;;
12896;SDS011;6516;35.028;32.372;2023-03-24T09:56:27;14.25;;;5.53;;
12896;SDS011;6516;35.028;32.372;2023-03-24T09:59:00;12.52;;;5.10;;
12896;SDS011;6516;35.028;32.372;2023-03-24T10:01:32;10.05;;;4.85;;
12896;SDS011;6516;35.028;32.372;2023-03-24T10:04:02;13.25;;;5.68;;
12896;SDS011;6516;35.028;32.372;2023-03-24T10:06:34;12.57;;;4.93;;
12896;SDS011;6516;35.028;32.372;2023-03-24T10:09:09;15.85;;;5.97;;
12896;SDS011;6516;35.028;32.372;2023-03-24T10:11:52;15.82;;;5.60;;
12896;SDS011;6516;35.028;32.372;2023-03-24T10:17:34;12.60;;;5.15;;
12896;SDS011;6516;35.028;32.372;2023-03-24T10:20:16;10.17;;;5.13;;
12896;SDS011;6516;35.028;32.372;2023-03-24T10:23:01;14.70;;;6.28;;
12896;SDS011;6516;35.028;32.372;2023-03-24T10:25:45;14.52;;;5.75;;
12896;SDS011;6516;35.028;32.372;2023-03-24T10:28:18;14.43;;;5.75;;
12896;SDS011;6516;35.028;32.372;2023-03-24T10:30:50;13.65;;;5.13;;
12896;SDS011;6516;35.028;32.372;2023-03-24T10:33:22;10.80;;;5.53;;
12896;SDS011;6516;35.028;32.372;2023-03-24T10:35:53;10.30;;;5.20;;
12896;SDS011;6516;35.028;32.372;2023-03-24T10:38:26;11.60;;;4.90;;
12896;SDS011;6516;35.028;32.372;2023-03-24T10:40:54;12.77;;;5.20;;
12896;SDS011;6516;35.028;32.372;2023-03-24T10:43:22;10.00;;;5.30;;
12896;SDS011;6516;35.028;32.372;2023-03-24T10:45:52;11.97;;;5.13;;
12896;SDS011;6516;35.028;32.372;2023-03-24T10:48:33;13.18;;;5.53;;
12896;SDS011;6516;35.028;32.372;2023-03-24T10:51:13;11.00;;;5.57;;
12896;SDS011;6516;35.028;32.372;2023-03-24T10:53:43;11.48;;;5.40;;
12896;SDS011;6516;35.028;32.372;2023-03-24T10:56:16;10.23;;;5.30;;
12896;SDS011;6516;35.028;32.372;2023-03-24T10:58:47;16.87;;;6.27;;
12896;SDS011;6516;35.028;32.372;2023-03-24T11:01:25;13.55;;;6.40;;
12896;SDS011;6516;35.028;32.372;2023-03-24T11:03:57;12.68;;;5.78;;
12896;SDS011;6516;35.028;32.372;2023-03-24T11:06:30;12.75;;;5.72;;
12896;SDS011;6516;35.028;32.372;2023-03-24T11:09:09;13.20;;;6.32;;
12896;SDS011;6516;35.028;32.372;2023-03-24T11:11:45;13.97;;;6.10;;
12896;SDS011;6516;35.028;32.372;2023-03-24T11:14:20;14.20;;;5.60;;
12896;SDS011;6516;35.028;32.372;2023-03-24T11:16:50;15.52;;;6.05;;
12896;SDS011;6516;35.028;32.372;2023-03-24T11:19:19;11.25;;;5.43;;
12896;SDS011;6516;35.028;32.372;2023-03-24T11:21:50;9.85;;;4.95;;
12896;SDS011;6516;35.028;32.372;2023-03-24T11:24:25;15.90;;;6.50;;
12896;SDS011;6516;35.028;32.372;2023-03-24T11:26:56;12.98;;;6.15;;
12896;SDS011;6516;35.028;32.372;2023-03-24T11:29:26;16.15;;;6.28;;
12896;SDS011;6516;35.028;32.372;2023-03-24T11:31:56;12.02;;;6.20;;
12896;SDS011;6516;35.028;32.372;2023-03-24T11:34:27;13.52;;;5.68;;
12896;SDS011;6516;35.028;32.372;2023-03-24T11:37:04;13.33;;;5.70;;
12896;SDS011;6516;35.028;32.372;2023-03-24T11:39:38;14.43;;;5.40;;
12896;SDS011;6516;35.028;32.372;2023-03-24T11:42:13;10.85;;;5.40;;
12896;SDS011;6516;35.028;32.372;2023-03-24T11:44:46;8.45;;;5.45;;
12896;SDS011;6516;35.028;32.372;2023-03-24T11:47:18;10.45;;;5.68;;
12896;SDS011;6516;35.028;32.372;2023-03-24T11:49:51;9.43;;;5.43;;
12896;SDS011;6516;35.028;32.372;2023-03-24T11:52:30;11.23;;;5.53;;
12896;SDS011;6516;35.028;32.372;2023-03-24T11:55:05;11.48;;;5.88;;
12896;SDS011;6516;35.028;32.372;2023-03-24T11:57:45;13.63;;;6.45;;
12896;SDS011;6516;35.028;32.372;2023-03-24T12:00:20;14.18;;;6.50;;
12896;SDS011;6516;35.028;32.372;2023-03-24T12:03:01;14.60;;;6.20;;
12896;SDS011;6516;35.028;32.372;2023-03-24T12:05:54;12.65;;;6.38;;
12896;SDS011;6516;35.028;32.372;2023-03-24T12:08:43;14.90;;;6.50;;
12896;SDS011;6516;35.028;32.372;2023-03-24T12:11:29;12.27;;;6.22;;
12896;SDS011;6516;35.028;32.372;2023-03-24T12:14:10;10.77;;;5.75;;
12896;SDS011;6516;35.028;32.372;2023-03-24T12:16:47;12.73;;;6.30;;
12896;SDS011;6516;35.028;32.372;2023-03-24T12:19:30;12.50;;;6.00;;
12896;SDS011;6516;35.028;32.372;2023-03-24T12:22:24;9.98;;;5.55;;
12896;SDS011;6516;35.028;32.372;2023-03-24T12:25:19;10.43;;;5.50;;
12896;SDS011;6516;35.028;32.372;2023-03-24T12:28:01;16.55;;;6.75;;
12896;SDS011;6516;35.028;32.372;2023-03-24T12:30:48;11.60;;;5.67;;
12896;SDS011;6516;35.028;32.372;2023-03-24T12:33:38;11.20;;;5.70;;
12896;SDS011;6516;35.028;32.372;2023-03-24T12:36:30;10.23;;;5.95;;
12896;SDS011;6516;35.028;32.372;2023-03-24T12:39:09;12.38;;;5.80;;
12896;SDS011;6516;35.028;32.372;2023-03-24T12:41:58;12.23;;;6.07;;
12896;SDS011;6516;35.028;32.372;2023-03-24T12:47:49;12.15;;;5.40;;
12896;SDS011;6516;35.028;32.372;2023-03-24T12:50:51;12.38;;;5.65;;
12896;SDS011;6516;35.028;32.372;2023-03-24T12:53:34;11.48;;;5.72;;
12896;SDS011;6516;35.028;32.372;2023-03-24T12:56:18;9.43;;;5.85;;
12896;SDS011;6516;35.028;32.372;2023-03-24T12:58:54;12.17;;;5.93;;
12896;SDS011;6516;35.028;32.372;2023-03-24T13:01:26;13.75;;;5.97;;
12896;SDS011;6516;35.028;32.372;2023-03-24T13:04:02;14.55;;;6.80;;
12896;SDS011;6516;35.028;32.372;2023-03-24T13:06:37;11.60;;;6.60;;
12896;SDS011;6516;35.028;32.372;2023-03-24T13:09:13;11.35;;;6.80;;
12896;SDS011;6516;35.028;32.372;2023-03-24T13:11:53;11.37;;;7.63;;
12896;SDS011;6516;35.028;32.372;2023-03-24T13:14:29;12.02;;;7.43;;
12896;SDS011;6516;35.028;32.372;2023-03-24T13:17:05;15.07;;;7.75;;
12896;SDS011;6516;35.028;32.372;2023-03-24T13:19:39;14.48;;;8.80;;
12896;SDS011;6516;35.028;32.372;2023-03-24T13:22:09;13.48;;;9.23;;
12896;SDS011;6516;35.028;32.372;2023-03-24T13:24:43;16.50;;;9.43;;
12896;SDS011;6516;35.028;32.372;2023-03-24T13:27:13;16.73;;;9.93;;
12896;SDS011;6516;35.028;32.372;2023-03-24T13:30:01;14.68;;;9.70;;
12896;SDS011;6516;35.028;32.372;2023-03-24T13:32:57;14.23;;;9.15;;
12896;SDS011;6516;35.028;32.372;2023-03-24T13:35:54;16.60;;;10.55;;
12896;SDS011;6516;35.028;32.372;2023-03-24T13:38:38;17.13;;;10.57;;
12896;SDS011;6516;35.028;32.372;2023-03-24T13:41:11;17.77;;;11.35;;
12896;SDS011;6516;35.028;32.372;2023-03-24T13:43:46;17.70;;;11.52;;
12896;SDS011;6516;35.028;32.372;2023-03-24T13:46:17;17.60;;;11.50;;
12896;SDS011;6516;35.028;32.372;2023-03-24T13:48:45;17.80;;;10.68;;
12896;SDS011;6516;35.028;32.372;2023-03-24T13:51:20;15.17;;;10.50;;
12896;SDS011;6516;35.028;32.372;2023-03-24T13:53:53;14.95;;;10.07;;
12896;SDS011;6516;35.028;32.372;2023-03-24T13:56:25;18.02;;;10.43;;
12896;SDS011;6516;35.028;32.372;2023-03-24T13:59:06;17.42;;;10.13;;
12896;SDS011;6516;35.028;32.372;2023-03-24T14:05:01;17.53;;;9.30;;
12896;SDS011;6516;35.028;32.372;2023-03-24T14:07:32;14.02;;;9.00;;
12896;SDS011;6516;35.028;32.372;2023-03-24T14:13:16;14.55;;;10.15;;
12896;SDS011;6516;35.028;32.372;2023-03-24T14:15:59;14.95;;;10.23;;
12896;SDS011;6516;35.028;32.372;2023-03-24T14:19:20;16.53;;;10.57;;
12896;SDS011;6516;35.028;32.372;2023-03-24T14:21:56;17.13;;;10.75;;
12896;SDS011;6516;35.028;32.372;2023-03-24T14:24:30;16.27;;;11.73;;
12896;SDS011;6516;35.028;32.372;2023-03-24T14:26:58;21.98;;;12.52;;
12896;SDS011;6516;35.028;32.372;2023-03-24T14:29:39;18.45;;;11.38;;
12896;SDS011;6516;35.028;32.372;2023-03-24T14:32:15;17.97;;;11.57;;
12896;SDS011;6516;35.028;32.372;2023-03-24T14:34:55;18.67;;;13.32;;
12896;SDS011;6516;35.028;32.372;2023-03-24T14:37:25;18.88;;;12.50;;
12896;SDS011;6516;35.028;32.372;2023-03-24T14:39:55;19.13;;;11.40;;
12896;SDS011;6516;35.028;32.372;2023-03-24T14:42:26;17.10;;;9.80;;
12896;SDS011;6516;35.028;32.372;2023-03-24T14:45:38;20.00;;;9.90;;
12896;SDS011;6516;35.028;32.372;2023-03-24T14:48:32;17.40;;;9.25;;
12896;SDS011;6516;35.028;32.372;2023-03-24T14:51:24;15.73;;;8.75;;
12896;SDS011;6516;35.028;32.372;2023-03-24T14:54:02;13.15;;;8.73;;
12896;SDS011;6516;35.028;32.372;2023-03-24T14:56:37;15.35;;;8.60;;
12896;SDS011;6516;35.028;32.372;2023-03-24T14:59:10;16.70;;;8.27;;
12896;SDS011;6516;35.028;32.372;2023-03-24T15:01:53;15.60;;;9.02;;
12896;SDS011;6516;35.028;32.372;2023-03-24T15:04:31;14.57;;;8.40;;
12896;SDS011;6516;35.028;32.372;2023-03-24T15:07:04;15.20;;;7.70;;
12896;SDS011;6516;35.028;32.372;2023-03-24T15:09:35;13.80;;;7.30;;
12896;SDS011;6516;35.028;32.372;2023-03-24T15:12:04;13.27;;;7.23;;
12896;SDS011;6516;35.028;32.372;2023-03-24T15:14:32;12.77;;;6.95;;
12896;SDS011;6516;35.028;32.372;2023-03-24T15:17:04;10.90;;;6.80;;
12896;SDS011;6516;35.028;32.372;2023-03-24T15:19:43;15.20;;;8.77;;
12896;SDS011;6516;35.028;32.372;2023-03-24T15:22:12;14.93;;;8.25;;
12896;SDS011;6516;35.028;32.372;2023-03-24T15:24:41;18.00;;;7.83;;
12896;SDS011;6516;35.028;32.372;2023-03-24T15:27:22;12.60;;;6.97;;
12896;SDS011;6516;35.028;32.372;2023-03-24T15:29:53;13.65;;;7.03;;
12896;SDS011;6516;35.028;32.372;2023-03-24T15:32:24;12.88;;;7.03;;
12896;SDS011;6516;35.028;32.372;2023-03-24T15:34:56;13.52;;;6.50;;
12896;SDS011;6516;35.028;32.372;2023-03-24T15:37:31;12.63;;;5.83;;
12896;SDS011;6516;35.028;32.372;2023-03-24T15:40:02;15.57;;;5.30;;
12896;SDS011;6516;35.028;32.372;2023-03-24T15:42:31;10.60;;;4.70;;